Santa Mae Laura — CUQJ — position and weather

sailwx.info

Track history (hours):
 
Tides and Currents Weather Stations Pressure Air Temp Water Temp Dewpoint Dewpoint Depression Visibility Wind Speed Wind Dir Waves Ship Positions

Santa Mae Laura

Last reported at 2015-Jun-26 19:30 UTC. Time now 2015-Jul-03 22:06 UTC.
Position N 42°47' W 009°03'.

Length 24 m.

Type: Fishing. MMSI: 263432000.

Date/timePositionNaut miles runAvg speedWind from/ knotsBaromVisibWave heightAir tempDewpointWater temp
2015-Jun-26 19:30N 42°47' W 009°03'33 1.9
2015-Jun-26 02:21N 42°14' W 009°10'113 4.0
2015-Jun-24 22:30N 40°22' W 009°27'24 4.8
2015-Jun-24 17:31N 39°59' W 009°21'4 3.8
2015-Jun-24 16:32N 40°03' W 009°19'3 0.6
2015-Jun-24 11:31N 40°05' W 009°22'8 0.2
2015-Jun-22 19:11N 39°59' W 009°27'3 3.8
2015-Jun-22 18:30N 40°01' W 009°25'4 4.1
2015-Jun-22 17:31N 40°04' W 009°22'2 1.9
2015-Jun-22 16:28N 40°02' W 009°23'4 3.7
2015-Jun-22 15:31N 39°59' W 009°26'7 1.7
2015-Jun-22 11:33N 39°54' W 009°31'4 3.9
2015-Jun-22 10:32N 39°57' W 009°29'4 3.9
2015-Jun-22 09:30N 40°01' W 009°28'2 1.5
2015-Jun-22 08:13N 40°03' W 009°28'3 2.8
2015-Jun-22 07:06N 40°06' W 009°30'2 3.8
2015-Jun-22 06:27N 40°09' W 009°30'32 5.3
2015-Jun-22 00:31N 40°40' W 009°28'6 5.8
2015-Jun-21 23:33N 40°46' W 009°26'6 5.9
2015-Jun-21 22:33N 40°51' W 009°24'6 6.1
2015-Jun-21 21:33N 40°57' W 009°21'5 5.4
2015-Jun-21 20:32N 41°02' W 009°20'1 1.5
2015-Jun-21 19:33N 41°04' W 009°19'4 3.8
2015-Jun-21 18:33N 41°07' W 009°18'4 3.6
2015-Jun-21 17:32N 41°11' W 009°16'8 6.5
2015-Jun-21 16:14N 41°19' W 009°16'  
Track history (hours):
 
Tides and Currents Weather Stations Pressure Air Temp Water Temp Dewpoint Dewpoint Depression Visibility Wind Speed Wind Dir Waves Ship Positions

Santa Mae Laura

Last reported at 2015-Jun-26 19:30 UTC. Time now 2015-Jul-03 22:06 UTC.
Position N 42°47' W 009°03'.

Length 24 m.

Type: Fishing. MMSI: 263432000.

Date/timePositionNaut miles runAvg speedWind from/ knotsBaromVisibWave heightAir tempDewpointWater temp
2015-Jun-26 19:30N 42°47' W 009°03'33 1.9
2015-Jun-26 02:21N 42°14' W 009°10'113 4.0
2015-Jun-24 22:30N 40°22' W 009°27'24 4.8
2015-Jun-24 17:31N 39°59' W 009°21'4 3.8
2015-Jun-24 16:32N 40°03' W 009°19'3 0.6
2015-Jun-24 11:31N 40°05' W 009°22'8 0.2
2015-Jun-22 19:11N 39°59' W 009°27'3 3.8
2015-Jun-22 18:30N 40°01' W 009°25'4 4.1
2015-Jun-22 17:31N 40°04' W 009°22'2 1.9
2015-Jun-22 16:28N 40°02' W 009°23'4 3.7
2015-Jun-22 15:31N 39°59' W 009°26'7 1.7
2015-Jun-22 11:33N 39°54' W 009°31'4 3.9
2015-Jun-22 10:32N 39°57' W 009°29'4 3.9
2015-Jun-22 09:30N 40°01' W 009°28'2 1.5
2015-Jun-22 08:13N 40°03' W 009°28'3 2.8
2015-Jun-22 07:06N 40°06' W 009°30'2 3.8
2015-Jun-22 06:27N 40°09' W 009°30'32 5.3
2015-Jun-22 00:31N 40°40' W 009°28'6 5.8
2015-Jun-21 23:33N 40°46' W 009°26'6 5.9
2015-Jun-21 22:33N 40°51' W 009°24'6 6.1
2015-Jun-21 21:33N 40°57' W 009°21'5 5.4
2015-Jun-21 20:32N 41°02' W 009°20'1 1.5
2015-Jun-21 19:33N 41°04' W 009°19'4 3.8
2015-Jun-21 18:33N 41°07' W 009°18'4 3.6
2015-Jun-21 17:32N 41°11' W 009°16'8 6.5
2015-Jun-21 16:14N 41°19' W 009°16'  

Dump ship's entire track history